| time (UTC) | temp C | wind direction | speed KPH | gust KPH | rain 1hr cm | rain 24hr cm | rain mn cm | humidity % | barometer mb |
| 20260504100321 | 12 | 24 | 0.0 | 0.0 | 0.00 | 0.00 | 0.00 | 84 | 1016.8 |
| 20260504081816 | 13 | 24 | 1.6 | 0.0 | 0.00 | 0.00 | 0.00 | 83 | 1017.0 |
| 20260504081331 | 14 | 24 | 1.6 | 0.0 | 0.00 | 0.00 | 0.00 | 82 | 1017.0 |
| 20260504080830 | 15 | 24 | 1.6 | 0.0 | 0.00 | 0.00 | 0.00 | 81 | 1017.0 |
| 20260504080318 | 15 | 24 | 1.6 | 0.0 | 0.00 | 0.00 | 0.00 | 81 | 1017.0 |
| 20260504070329 | 16 | 24 | 1.6 | 0.0 | 0.00 | 0.00 | 0.00 | 75 | 1017.5 |
| 20260504050321 | 20 | 288 | 12.9 | 0.0 | 0.00 | 0.00 | 0.00 | 68 | 1018.1 |
| 20260504045815 | 20 | 297 | 12.9 | 0.0 | 0.00 | 0.00 | 0.00 | 69 | 1018.1 |
| 20260504045359 | 20 | 295 | 11.3 | 0.0 | 0.00 | 0.00 | 0.00 | 69 | 1018.1 |
| 20260504044824 | 20 | 291 | 11.3 | 0.0 | 0.00 | 0.00 | 0.00 | 67 | 1018.0 |
| 20260504044330 | 20 | 298 | 12.9 | 0.0 | 0.00 | 0.00 | 0.00 | 68 | 1017.9 |
| 20260504043847 | 20 | 286 | 12.9 | 0.0 | 0.00 | 0.00 | 0.00 | 67 | 1017.9 |
| 20260504043314 | 20 | 290 | 11.3 | 0.0 | 0.00 | 0.00 | 0.00 | 68 | 1018.0 |
| 20260504042839 | 20 | 294 | 11.3 | 0.0 | 0.00 | 0.00 | 0.00 | 71 | 1017.9 |
| 20260504042335 | 20 | 288 | 11.3 | 0.0 | 0.00 | 0.00 | 0.00 | 69 | 1017.9 |
| 20260504041842 | 20 | 291 | 9.7 | 0.0 | 0.00 | 0.00 | 0.00 | 69 | 1017.9 |
| 20260504041329 | 20 | 281 | 8.0 | 0.0 | 0.00 | 0.00 | 0.00 | 68 | 1017.9 |
| 20260504040817 | 20 | 286 | 3.2 | 0.0 | 0.00 | 0.00 | 0.00 | 71 | 1017.7 |
| 20260504040334 | 20 | 336 | 1.6 | 0.0 | 0.00 | 0.00 | 0.00 | 67 | 1017.6 |
| 20260504035830 | 20 | 336 | 4.8 | 0.0 | 0.00 | 0.00 | 0.00 | 66 | 1017.6 |
| 20260504035328 | 21 | 325 | 6.4 | 0.0 | 0.00 | 0.00 | 0.00 | 66 | 1017.6 |
| 20260504034817 | 21 | 320 | 6.4 | 0.0 | 0.00 | 0.00 | 0.00 | 63 | 1017.6 |
| 20260504034318 | 21 | 311 | 6.4 | 0.0 | 0.00 | 0.00 | 0.00 | 60 | 1017.6 |
| 20260504033816 | 21 | 297 | 8.0 | 0.0 | 0.00 | 0.00 | 0.00 | 67 | 1017.6 |
| 20260504033337 | 21 | 302 | 8.0 | 0.0 | 0.00 | 0.00 | 0.00 | 65 | 1017.6 |
| 20260504032818 | 21 | 293 | 8.0 | 0.0 | 0.00 | 0.00 | 0.00 | 68 | 1017.7 |
| 20260504032339 | 21 | 286 | 8.0 | 0.0 | 0.00 | 0.00 | 0.00 | 70 | 1017.7 |
| 20260504031828 | 21 | 284 | 6.4 | 0.0 | 0.00 | 0.00 | 0.00 | 69 | 1017.7 |
| 20260504031324 | 21 | 282 | 6.4 | 0.0 | 0.00 | 0.00 | 0.00 | 67 | 1017.7 |
| 20260504030839 | 21 | 273 | 6.4 | 0.0 | 0.00 | 0.00 | 0.00 | 67 | 1017.7 |
| 20260504030336 | 21 | 283 | 6.4 | 0.0 | 0.00 | 0.00 | 0.00 | 70 | 1017.7 |
| 20260504025831 | 21 | 275 | 6.4 | 0.0 | 0.00 | 0.00 | 0.00 | 69 | 1017.8 |
| 20260504025319 | 21 | 271 | 6.4 | 0.0 | 0.00 | 0.00 | 0.00 | 68 | 1017.8 |
| 20260504024817 | 21 | 263 | 8.0 | 0.0 | 0.00 | 0.00 | 0.00 | 69 | 1017.7 |
| 20260504024404 | 21 | 252 | 8.0 | 0.0 | 0.00 | 0.00 | 0.00 | 67 | 1017.8 |
| 20260504023832 | 21 | 252 | 9.7 | 0.0 | 0.00 | 0.00 | 0.00 | 68 | 1017.7 |
| 20260504023350 | 21 | 251 | 9.7 | 0.0 | 0.00 | 0.00 | 0.00 | 68 | 1017.7 |
| 20260504022853 | 21 | 251 | 9.7 | 0.0 | 0.00 | 0.00 | 0.00 | 67 | 1017.6 |
| 20260504022321 | 21 | 252 | 9.7 | 0.0 | 0.00 | 0.00 | 0.00 | 67 | 1017.6 |
| 20260504021817 | 21 | 258 | 8.0 | 0.0 | 0.00 | 0.00 | 0.00 | 69 | 1017.6 |
| 20260504021332 | 21 | 250 | 8.0 | 0.0 | 0.00 | 0.00 | 0.00 | 69 | 1017.5 |
| 20260504020829 | 21 | 250 | 8.0 | 0.0 | 0.00 | 0.00 | 0.00 | 69 | 1017.4 |
| 20260504020319 | 21 | 253 | 9.7 | 0.0 | 0.00 | 0.00 | 0.00 | 69 | 1017.3 |
| 20260504015815 | 21 | 244 | 11.3 | 0.0 | 0.00 | 0.00 | 0.00 | 68 | 1017.3 |
| 20260504015326 | 21 | 257 | 11.3 | 0.0 | 0.00 | 0.00 | 0.00 | 68 | 1017.4 |
| 20260504014828 | 21 | 252 | 11.3 | 0.0 | 0.00 | 0.00 | 0.00 | 69 | 1017.2 |
| 20260504014324 | 21 | 245 | 11.3 | 0.0 | 0.00 | 0.00 | 0.00 | 66 | 1017.1 |
| 20260504013830 | 21 | 227 | 11.3 | 0.0 | 0.00 | 0.00 | 0.00 | 66 | 1017.1 |
| 20260504013327 | 21 | 245 | 12.9 | 0.0 | 0.00 | 0.00 | 0.00 | 68 | 1017.1 |
| 20260504012823 | 21 | 240 | 12.9 | 0.0 | 0.00 | 0.00 | 0.00 | 68 | 1017.0 |
| 20260504012344 | 21 | 236 | 12.9 | 0.0 | 0.00 | 0.00 | 0.00 | 66 | 1016.9 |
| 20260504011841 | 21 | 237 | 14.5 | 0.0 | 0.00 | 0.00 | 0.00 | 64 | 1016.9 |
| 20260504011316 | 21 | 252 | 14.5 | 0.0 | 0.00 | 0.00 | 0.00 | 64 | 1016.8 |
| 20260504010825 | 21 | 229 | 12.9 | 0.0 | 0.00 | 0.00 | 0.00 | 65 | 1016.8 |
| 20260504010320 | 21 | 245 | 12.9 | 0.0 | 0.00 | 0.00 | 0.00 | 67 | 1016.7 |
| 20260504005815 | 21 | 242 | 11.3 | 0.0 | 0.00 | 0.00 | 0.00 | 64 | 1016.6 |
| 20260504005333 | 21 | 241 | 11.3 | 0.0 | 0.00 | 0.00 | 0.00 | 63 | 1016.6 |
| 20260504004821 | 21 | 234 | 11.3 | 0.0 | 0.00 | 0.00 | 0.00 | 63 | 1016.6 |
| 20260504004320 | 21 | 221 | 11.3 | 0.0 | 0.00 | 0.00 | 0.00 | 63 | 1016.6 |
| 20260504003814 | 21 | 236 | 12.9 | 0.0 | 0.00 | 0.00 | 0.00 | 63 | 1016.6 |
| 20260504003332 | 22 | 244 | 12.9 | 0.0 | 0.00 | 0.00 | 0.00 | 65 | 1016.6 |
| 20260504002852 | 21 | 211 | 11.3 | 0.0 | 0.00 | 0.00 | 0.00 | 65 | 1016.5 |
| 20260504002332 | 22 | 256 | 11.3 | 0.0 | 0.00 | 0.00 | 0.00 | 63 | 1016.4 |
| 20260504001821 | 21 | 241 | 12.9 | 0.0 | 0.00 | 0.00 | 0.00 | 63 | 1016.4 |
| 20260504001327 | 22 | 233 | 12.9 | 0.0 | 0.00 | 0.00 | 0.00 | 62 | 1016.3 |
| 20260504000814 | 22 | 237 | 12.9 | 0.0 | 0.00 | 0.00 | 0.00 | 63 | 1016.4 |
| 20260504000332 | 22 | 242 | 12.9 | 0.0 | 0.00 | 0.00 | 0.00 | 61 | 1016.3 |
| 20260503235826 | 22 | 252 | 12.9 | 0.0 | 0.00 | 0.00 | 0.00 | 60 | 1016.3 |
| 20260503235324 | 22 | 232 | 11.3 | 0.0 | 0.00 | 0.00 | 0.00 | 57 | 1016.3 |
| 20260503234839 | 22 | 242 | 12.9 | 0.0 | 0.00 | 0.00 | 0.00 | 57 | 1016.3 |
| 20260503234338 | 22 | 238 | 11.3 | 0.0 | 0.00 | 0.00 | 0.00 | 64 | 1016.4 |
| 20260503233830 | 22 | 250 | 9.7 | 0.0 | 0.00 | 0.00 | 0.00 | 58 | 1016.4 |
| 20260503233345 | 22 | 234 | 12.9 | 0.0 | 0.00 | 0.00 | 0.00 | 61 | 1016.3 |
| 20260503232819 | 22 | 220 | 12.9 | 0.0 | 0.00 | 0.00 | 0.00 | 58 | 1016.3 |
| 20260503232405 | 22 | 232 | 12.9 | 0.0 | 0.00 | 0.00 | 0.00 | 57 | 1016.4 |
| 20260503231826 | 22 | 224 | 12.9 | 0.0 | 0.00 | 0.00 | 0.00 | 59 | 1016.4 |
| 20260503231345 | 22 | 233 | 12.9 | 0.0 | 0.00 | 0.00 | 0.00 | 57 | 1016.4 |
| 20260503230844 | 22 | 238 | 12.9 | 0.0 | 0.00 | 0.00 | 0.00 | 59 | 1016.4 |
| 20260503225327 | 22 | 226 | 12.9 | 0.0 | 0.00 | 0.00 | 0.00 | 56 | 1016.3 |
| 20260503224821 | 22 | 249 | 11.3 | 0.0 | 0.00 | 0.00 | 0.00 | 52 | 1016.3 |
| 20260503224314 | 22 | 231 | 9.7 | 0.0 | 0.00 | 0.00 | 0.00 | 57 | 1016.2 |
| 20260503223853 | 22 | 240 | 9.7 | 0.0 | 0.00 | 0.00 | 0.00 | 54 | 1016.3 |
| 20260503223319 | 22 | 232 | 9.7 | 0.0 | 0.00 | 0.00 | 0.00 | 55 | 1016.3 |
| 20260503222815 | 23 | 245 | 11.3 | 0.0 | 0.00 | 0.00 | 0.00 | 50 | 1016.2 |
| 20260503222333 | 23 | 307 | 11.3 | 0.0 | 0.00 | 0.00 | 0.00 | 50 | 1016.2 |
| 20260503221818 | 23 | 281 | 12.9 | 0.0 | 0.00 | 0.00 | 0.00 | 43 | 1016.2 |
| 20260503221328 | 23 | 286 | 9.7 | 0.0 | 0.00 | 0.00 | 0.00 | 45 | 1016.2 |
| 20260503220828 | 23 | 291 | 9.7 | 0.0 | 0.00 | 0.00 | 0.00 | 39 | 1016.3 |
| 20260503220333 | 23 | 285 | 11.3 | 0.0 | 0.00 | 0.00 | 0.00 | 45 | 1016.4 |
| 20260503215825 | 23 | 290 | 14.5 | 0.0 | 0.00 | 0.00 | 0.00 | 42 | 1016.4 |
| 20260503215320 | 23 | 296 | 14.5 | 0.0 | 0.00 | 0.00 | 0.00 | 47 | 1016.4 |
| 20260503214831 | 23 | 299 | 12.9 | 0.0 | 0.00 | 0.00 | 0.00 | 48 | 1016.5 |
| 20260503214327 | 23 | 306 | 11.3 | 0.0 | 0.00 | 0.00 | 0.00 | 45 | 1016.5 |
| 20260503213827 | 23 | 290 | 11.3 | 0.0 | 0.00 | 0.00 | 0.00 | 40 | 1016.5 |
| 20260503213400 | 23 | 316 | 11.3 | 0.0 | 0.00 | 0.00 | 0.00 | 43 | 1016.5 |
| 20260503212833 | 23 | 300 | 9.7 | 0.0 | 0.00 | 0.00 | 0.00 | 39 | 1016.6 |
| 20260503212319 | 23 | 288 | 8.0 | 0.0 | 0.00 | 0.00 | 0.00 | 46 | 1016.6 |
| 20260503211834 | 23 | 290 | 9.7 | 0.0 | 0.00 | 0.00 | 0.00 | 37 | 1016.7 |
| 20260503211328 | 23 | 263 | 11.3 | 0.0 | 0.00 | 0.00 | 0.00 | 37 | 1016.8 |
| 20260503210822 | 23 | 300 | 11.3 | 0.0 | 0.00 | 0.00 | 0.00 | 46 | 1016.8 |
| 20260503210320 | 23 | 303 | 12.9 | 0.0 | 0.00 | 0.00 | 0.00 | 41 | 1016.8 |
| 20260503205833 | 23 | 294 | 11.3 | 0.0 | 0.00 | 0.00 | 0.00 | 47 | 1016.9 |
| 20260503205321 | 23 | 293 | 11.3 | 0.0 | 0.00 | 0.00 | 0.00 | 43 | 1016.9 |
| 20260503204819 | 23 | 285 | 9.7 | 0.0 | 0.00 | 0.00 | 0.00 | 40 | 1016.9 |
| 20260503204332 | 23 | 303 | 9.7 | 0.0 | 0.00 | 0.00 | 0.00 | 43 | 1017.0 |
| 20260503203816 | 23 | 300 | 9.7 | 0.0 | 0.00 | 0.00 | 0.00 | 44 | 1017.0 |
| 20260503203350 | 23 | 292 | 9.7 | 0.0 | 0.00 | 0.00 | 0.00 | 39 | 1017.1 |
| 20260503202823 | 23 | 293 | 9.7 | 0.0 | 0.00 | 0.00 | 0.00 | 41 | 1017.2 |
| 20260503202324 | 23 | 311 | 9.7 | 0.0 | 0.00 | 0.00 | 0.00 | 46 | 1017.3 |
| 20260503201833 | 23 | 308 | 11.3 | 0.0 | 0.00 | 0.00 | 0.00 | 45 | 1017.4 |
| 20260503201325 | 23 | 293 | 11.3 | 0.0 | 0.00 | 0.00 | 0.00 | 40 | 1017.4 |
| 20260503200826 | 23 | 286 | 11.3 | 0.0 | 0.00 | 0.00 | 0.00 | 47 | 1017.4 |
| 20260503200331 | 23 | 319 | 9.7 | 0.0 | 0.00 | 0.00 | 0.00 | 42 | 1017.4 |
| 20260503195824 | 23 | 325 | 8.0 | 0.0 | 0.00 | 0.00 | 0.00 | 47 | 1017.6 |
| 20260503195319 | 23 | 299 | 6.4 | 0.0 | 0.00 | 0.00 | 0.00 | 38 | 1017.8 |
| 20260503194820 | 23 | 317 | 8.0 | 0.0 | 0.00 | 0.00 | 0.00 | 44 | 1017.9 |
| 20260503194320 | 23 | 336 | 11.3 | 0.0 | 0.00 | 0.00 | 0.00 | 40 | 1018.0 |
| 20260503193837 | 23 | 321 | 11.3 | 0.0 | 0.00 | 0.00 | 0.00 | 37 | 1018.1 |
| 20260503193325 | 23 | 315 | 9.7 | 0.0 | 0.00 | 0.00 | 0.00 | 38 | 1018.2 |
| 20260503192822 | 23 | 303 | 9.7 | 0.0 | 0.00 | 0.00 | 0.00 | 45 | 1018.2 |
| 20260503192340 | 23 | 304 | 8.0 | 0.0 | 0.00 | 0.00 | 0.00 | 36 | 1018.3 |
| 20260503191824 | 23 | 346 | 8.0 | 0.0 | 0.00 | 0.00 | 0.00 | 42 | 1018.4 |
| 20260503191341 | 22 | 311 | 8.0 | 0.0 | 0.00 | 0.00 | 0.00 | 37 | 1018.5 |
| 20260503190840 | 22 | 280 | 8.0 | 0.0 | 0.00 | 0.00 | 0.00 | 41 | 1018.7 |
| 20260503190329 | 22 | 313 | 8.0 | 0.0 | 0.00 | 0.00 | 0.00 | 45 | 1018.8 |
| 20260503185822 | 22 | 304 | 9.7 | 0.0 | 0.00 | 0.00 | 0.00 | 40 | 1018.9 |
| 20260503185336 | 22 | 304 | 11.3 | 0.0 | 0.00 | 0.00 | 0.00 | 44 | 1018.9 |
| 20260503184844 | 22 | 281 | 11.3 | 0.0 | 0.00 | 0.00 | 0.00 | 43 | 1019.0 |
| 20260503184316 | 22 | 305 | 11.3 | 0.0 | 0.00 | 0.00 | 0.00 | 39 | 1019.0 |
| 20260503183834 | 22 | 298 | 9.7 | 0.0 | 0.00 | 0.00 | 0.00 | 42 | 1019.1 |
| 20260503183348 | 22 | 303 | 8.0 | 0.0 | 0.00 | 0.00 | 0.00 | 41 | 1019.2 |
| 20260503182848 | 22 | 321 | 6.4 | 0.0 | 0.00 | 0.00 | 0.00 | 41 | 1019.3 |
| 20260503182319 | 22 | 319 | 6.4 | 0.0 | 0.00 | 0.00 | 0.00 | 38 | 1019.3 |
| 20260503181855 | 22 | 333 | 8.0 | 0.0 | 0.00 | 0.00 | 0.00 | 37 | 1019.4 |
| 20260503181329 | 22 | 320 | 9.7 | 0.0 | 0.00 | 0.00 | 0.00 | 39 | 1019.4 |
| 20260503180829 | 22 | 315 | 11.3 | 0.0 | 0.00 | 0.00 | 0.00 | 38 | 1019.3 |
| 20260503180337 | 22 | 304 | 9.7 | 0.0 | 0.00 | 0.00 | 0.00 | 44 | 1019.3 |
| 20260503175840 | 22 | 328 | 9.7 | 0.0 | 0.00 | 0.00 | 0.00 | 36 | 1019.3 |
| 20260503175344 | 22 | 309 | 11.3 | 0.0 | 0.00 | 0.00 | 0.00 | 39 | 1019.3 |
| 20260503174823 | 21 | 321 | 14.5 | 0.0 | 0.00 | 0.00 | 0.00 | 39 | 1019.4 |
| 20260503174341 | 21 | 311 | 12.9 | 0.0 | 0.00 | 0.00 | 0.00 | 43 | 1019.3 |
| 20260503173811 | 21 | 326 | 9.7 | 0.0 | 0.00 | 0.00 | 0.00 | 43 | 1019.3 |
| 20260503173320 | 22 | 332 | 11.3 | 0.0 | 0.00 | 0.00 | 0.00 | 40 | 1019.4 |
| 20260503172813 | 21 | 317 | 11.3 | 0.0 | 0.00 | 0.00 | 0.00 | 41 | 1019.5 |
| 20260503172331 | 22 | 320 | 9.7 | 0.0 | 0.00 | 0.00 | 0.00 | 43 | 1019.5 |
| 20260503171845 | 22 | 331 | 8.0 | 0.0 | 0.00 | 0.00 | 0.00 | 45 | 1019.6 |
| 20260503171341 | 22 | 325 | 8.0 | 0.0 | 0.00 | 0.00 | 0.00 | 37 | 1019.8 |
| 20260503170829 | 21 | 331 | 9.7 | 0.0 | 0.00 | 0.00 | 0.00 | 40 | 1019.8 |
| 20260503170320 | 21 | 321 | 9.7 | 0.0 | 0.00 | 0.00 | 0.00 | 47 | 1019.9 |
| 20260503150823 | 19 | 296 | 9.7 | 0.0 | 0.00 | 0.00 | 0.00 | 64 | 1020.8 |
| 20260503150328 | 19 | 308 | 9.7 | 0.0 | 0.00 | 0.00 | 0.00 | 58 | 1020.9 |
| 20260503131333 | 17 | 302 | 3.2 | 0.0 | 0.00 | 0.00 | 0.00 | 64 | 1020.0 |
| 20260503130829 | 16 | 340 | 3.2 | 0.0 | 0.00 | 0.00 | 0.00 | 65 | 1019.9 |
| 20260503130318 | 16 | 355 | 3.2 | 0.0 | 0.00 | 0.00 | 0.00 | 63 | 1019.8 |
| 20260503110322 | 12 | 63 | 1.6 | 0.0 | 0.00 | 0.00 | 0.00 | 78 | 1019.2 |